Miami Shores, Florida
Current Conditions -  °F | °C
As of 12:53 AM on Friday 28 Nov 2014 (Local Time) from KOPF Reporting Station
Clear Clear  
Wind Chill: 58°   Ceiling: Unl
Heat Index: 58°   Visibility: 10mi
Dew Point: 43°   Wind: 17mph
Humidity: 58%   Direction: 340°NNW
Pressure: 30.19"   Gusts: 23mph
Location:  25.87°N, 80.19°W
Report Text: KOPF 280553Z AUTO 34015G20KT 10SM CLR 14/06 A3019 RMK AO2 SLP223 T01440061 10189 20144 58007
Loading
Personal Weather Stations






























Interactive Weather Map New forecast layout! Learn more

10-Day Weather Forecast

Advertisements
Track Severe Weather on mobile